createdAt,value
2023-05-04T00:01:45.877Z,6.55
2023-05-04T00:06:47.395Z,6.48
2023-05-04T00:11:49.373Z,6.35
2023-05-04T00:16:50.078Z,6.30
2023-05-04T00:21:50.801Z,6.18
2023-05-04T00:26:52.864Z,6.19
2023-05-04T00:31:54.056Z,6.15
2023-05-04T00:36:55.979Z,6.04
2023-05-04T00:41:57.994Z,5.96
2023-05-04T00:46:59.136Z,5.95
2023-05-04T00:52:01.613Z,5.85
2023-05-04T00:57:04.470Z,5.74
2023-05-04T01:02:05.139Z,5.70
2023-05-04T01:07:15.592Z,5.64
2023-05-04T01:12:22.499Z,5.56
2023-05-04T01:17:23.412Z,5.53
2023-05-04T01:22:25.510Z,5.44
2023-05-04T01:27:37.285Z,5.34
2023-05-04T01:32:40.911Z,5.31
2023-05-04T01:37:43.427Z,5.21
2023-05-04T01:42:44.085Z,5.18
2023-05-04T01:47:45.892Z,5.15
2023-05-04T01:52:47.932Z,5.13
2023-05-04T01:57:48.716Z,5.05
2023-05-04T02:02:49.462Z,5.00
2023-05-04T02:07:54.439Z,4.93
2023-05-04T02:12:55.695Z,4.90
2023-05-04T02:17:57.584Z,4.84
2023-05-04T02:22:59.709Z,4.80
2023-05-04T02:28:00.804Z,4.73
2023-05-04T02:33:01.618Z,4.71
2023-05-04T02:38:04.193Z,4.66
2023-05-04T02:43:06.113Z,4.65
2023-05-04T02:48:08.994Z,4.62
2023-05-04T02:53:11.102Z,4.54
2023-05-04T02:58:11.783Z,4.53
2023-05-04T03:03:12.784Z,4.46
2023-05-04T03:08:14.780Z,4.46
2023-05-04T03:13:16.629Z,4.37
2023-05-04T03:18:17.541Z,4.36
2023-05-04T03:23:20.124Z,4.29
2023-05-04T03:28:21.323Z,4.24
2023-05-04T03:33:22.074Z,4.22
2023-05-04T03:38:24.184Z,4.24
2023-05-04T03:43:26.730Z,4.25
2023-05-04T03:48:28.728Z,4.21
2023-05-04T03:53:30.754Z,4.25
2023-05-04T03:58:31.468Z,4.25
2023-05-04T04:03:36.453Z,4.27
2023-05-04T04:08:38.577Z,4.25
2023-05-04T04:13:39.356Z,4.27
2023-05-04T04:18:40.284Z,4.31
2023-05-04T04:23:42.248Z,4.42
2023-05-04T04:28:44.860Z,4.48
2023-05-04T04:33:45.548Z,4.44
2023-05-04T04:38:47.685Z,4.47
2023-05-04T04:43:48.390Z,4.57
2023-05-04T04:48:49.210Z,4.70
2023-05-04T04:53:51.352Z,4.79
2023-05-04T04:58:52.113Z,4.89
2023-05-04T05:03:53.000Z,5.02
2023-05-04T05:08:55.021Z,5.16
2023-05-04T05:13:56.193Z,5.31
2023-05-04T05:18:56.882Z,5.48
2023-05-04T05:23:58.916Z,5.65
2023-05-04T05:28:59.571Z,5.82
2023-05-04T05:34:00.218Z,5.97
2023-05-04T05:39:02.253Z,6.23
2023-05-04T05:44:02.914Z,6.46
2023-05-04T05:49:05.942Z,6.71
2023-05-04T05:54:07.978Z,6.86
2023-05-04T05:59:08.682Z,7.05
2023-05-04T06:04:09.566Z,7.29
2023-05-04T06:09:11.772Z,7.47
2023-05-04T06:14:12.509Z,7.62
2023-05-04T06:19:13.172Z,7.80
2023-05-04T06:24:15.136Z,8.07
2023-05-04T06:29:15.873Z,8.34
2023-05-04T06:34:17.944Z,8.99
2023-05-04T06:39:20.023Z,9.29
2023-05-04T06:44:20.753Z,9.58
2023-05-04T06:49:21.453Z,10.04
2023-05-04T06:54:23.500Z,10.04
2023-05-04T06:59:24.180Z,10.10
2023-05-04T07:04:25.007Z,10.24
2023-05-04T07:09:27.024Z,10.37
2023-05-04T07:14:27.687Z,10.74
2023-05-04T07:19:28.526Z,11.07
2023-05-04T07:24:32.059Z,11.32
2023-05-04T07:29:32.762Z,11.62
2023-05-04T07:34:45.055Z,11.98
2023-05-04T07:39:51.107Z,12.42
2023-05-04T07:44:53.020Z,12.76
2023-05-04T07:49:53.878Z,13.09
2023-05-04T07:54:55.956Z,13.40
2023-05-04T07:59:56.815Z,13.48
2023-05-04T08:04:57.564Z,13.84
2023-05-04T08:09:59.662Z,14.12
2023-05-04T08:15:00.556Z,14.25
2023-05-04T08:20:01.654Z,14.21
2023-05-04T08:25:04.266Z,14.36
2023-05-04T08:30:06.372Z,14.33
2023-05-04T08:35:08.016Z,14.50
2023-05-04T08:40:10.915Z,14.73
2023-05-04T08:45:12.082Z,14.89
2023-05-04T08:50:13.003Z,14.99
2023-05-04T08:55:17.040Z,15.17
2023-05-04T09:00:18.922Z,15.34
2023-05-04T09:05:19.761Z,15.51
2023-05-04T09:10:22.247Z,15.62
2023-05-04T09:15:23.701Z,15.88
2023-05-04T09:20:25.661Z,16.13
2023-05-04T09:25:27.856Z,16.25
2023-05-04T09:30:28.885Z,16.54
2023-05-04T09:35:33.650Z,15.88
2023-05-04T09:40:37.807Z,16.44
2023-05-04T09:45:42.308Z,16.77
2023-05-04T09:50:49.359Z,17.24
2023-05-04T09:56:03.921Z,17.46
2023-05-04T10:01:06.401Z,17.65
2023-05-04T10:06:09.008Z,17.85
2023-05-04T10:11:11.219Z,17.71
2023-05-04T10:16:24.907Z,17.74
2023-05-04T10:21:31.798Z,18.04
2023-05-04T10:27:00.465Z,18.28
2023-05-04T10:32:01.759Z,18.52
2023-05-04T10:37:04.050Z,18.86
2023-05-04T10:42:07.777Z,18.97
2023-05-04T10:47:09.116Z,19.04
2023-05-04T10:52:12.595Z,18.82
2023-05-04T10:57:17.526Z,18.98
2023-05-04T11:02:23.916Z,19.37
2023-05-04T11:07:34.046Z,19.50
2023-05-04T11:12:36.700Z,19.64
2023-05-04T11:17:46.433Z,19.51
2023-05-04T11:22:47.477Z,19.98
2023-05-04T11:27:50.206Z,20.08
2023-05-04T11:32:51.204Z,20.11
2023-05-04T11:37:51.910Z,19.74
2023-05-04T11:42:56.941Z,19.46
2023-05-04T11:47:58.846Z,20.32
2023-05-04T11:53:07.422Z,20.60
2023-05-04T11:58:10.540Z,20.76
2023-05-04T12:03:13.867Z,20.72
2023-05-04T12:08:24.008Z,20.56
2023-05-04T12:13:26.117Z,21.18
2023-05-04T12:18:29.764Z,21.26
2023-05-04T12:23:31.816Z,21.01
2023-05-04T12:28:34.680Z,21.04
2023-05-04T12:33:36.248Z,21.55
2023-05-04T12:38:37.554Z,21.07
2023-05-04T12:43:39.737Z,21.16
2023-05-04T12:48:42.438Z,21.62
2023-05-04T12:53:43.715Z,21.98
2023-05-04T12:58:45.727Z,22.66
2023-05-04T13:03:46.618Z,22.29
2023-05-04T13:08:48.408Z,22.06
2023-05-04T13:13:50.452Z,21.73
2023-05-04T13:18:51.155Z,21.88
2023-05-04T13:23:52.245Z,21.94
2023-05-04T13:28:54.366Z,21.61
2023-05-04T13:33:55.024Z,21.20
2023-05-04T13:38:55.672Z,21.47
2023-05-04T13:43:57.840Z,22.11
2023-05-04T13:48:58.540Z,22.48
2023-05-04T13:54:01.113Z,22.51
2023-05-04T13:59:04.443Z,22.08
2023-05-04T14:04:05.429Z,22.59
2023-05-04T14:09:06.284Z,22.16
2023-05-04T14:14:09.383Z,22.68
2023-05-04T14:19:10.111Z,23.01
2023-05-04T14:24:10.961Z,21.73
2023-05-04T14:29:12.939Z,22.23
2023-05-04T14:34:13.666Z,22.26
2023-05-04T14:39:14.367Z,22.26
2023-05-04T14:44:16.474Z,22.26
2023-05-04T14:49:28.890Z,22.32
2023-05-04T14:54:36.128Z,22.82
2023-05-04T14:59:38.614Z,23.14
2023-05-04T15:04:39.672Z,23.35
2023-05-04T15:09:40.404Z,23.04
2023-05-04T15:14:42.449Z,22.52
2023-05-04T15:19:43.605Z,22.46
2023-05-04T15:24:44.404Z,22.46
2023-05-04T15:29:46.421Z,22.51
2023-05-04T15:35:01.020Z,22.73
2023-05-04T15:40:05.686Z,22.79
2023-05-04T15:45:10.523Z,22.56
2023-05-04T15:50:11.830Z,22.32
2023-05-04T15:55:23.318Z,22.32
2023-05-04T16:00:27.900Z,22.11
2023-05-04T16:05:28.637Z,21.94
2023-05-04T16:10:29.374Z,21.71
2023-05-04T16:15:31.437Z,21.50
2023-05-04T16:20:32.226Z,21.44
2023-05-04T16:25:34.269Z,21.45
2023-05-04T16:30:36.519Z,21.13
2023-05-04T16:35:37.482Z,21.15
2023-05-04T16:40:38.489Z,20.99
2023-05-04T16:45:40.631Z,20.60
2023-05-04T16:50:43.348Z,20.22
2023-05-04T16:55:44.008Z,19.89
2023-05-04T17:00:46.010Z,19.49
2023-05-04T17:05:46.682Z,19.02
2023-05-04T17:10:47.380Z,18.87
2023-05-04T17:15:49.409Z,18.64
2023-05-04T17:20:50.082Z,18.50
2023-05-04T17:25:50.940Z,18.33
2023-05-04T17:30:52.948Z,18.27
2023-05-04T17:35:54.105Z,18.08
2023-05-04T17:40:54.787Z,17.90
2023-05-04T17:45:57.006Z,17.79
2023-05-04T17:50:57.925Z,17.59
2023-05-04T17:55:58.576Z,17.42
2023-05-04T18:01:00.642Z,17.36
2023-05-04T18:06:01.392Z,17.22
2023-05-04T18:11:02.193Z,17.08
2023-05-04T18:16:04.561Z,16.82
2023-05-04T18:21:05.756Z,16.65
2023-05-04T18:26:06.546Z,16.45
2023-05-04T18:31:08.619Z,16.23
2023-05-04T18:36:09.411Z,16.24
2023-05-04T18:41:12.036Z,16.05
2023-05-04T18:46:14.087Z,15.89
2023-05-04T18:51:14.771Z,15.65
2023-05-04T18:56:16.524Z,15.57
2023-05-04T19:01:18.792Z,15.51
2023-05-04T19:06:19.736Z,15.40
2023-05-04T19:11:20.478Z,15.35
2023-05-04T19:16:22.692Z,15.11
2023-05-04T19:21:23.370Z,15.11
2023-05-04T19:26:24.460Z,14.90
2023-05-04T19:31:26.472Z,14.73
2023-05-04T19:36:27.397Z,14.44
2023-05-04T19:41:28.110Z,14.13
2023-05-04T19:46:31.973Z,13.84
2023-05-04T19:51:33.900Z,13.75
2023-05-04T19:56:34.609Z,13.74
2023-05-04T20:01:36.608Z,13.61
2023-05-04T20:06:37.446Z,13.49
2023-05-04T20:11:38.300Z,13.34
2023-05-04T20:16:40.366Z,13.10
2023-05-04T20:21:41.138Z,12.98
2023-05-04T20:26:41.904Z,12.90
2023-05-04T20:31:44.001Z,12.85
2023-05-04T20:36:46.162Z,12.80
2023-05-04T20:41:47.063Z,12.81
2023-05-04T20:46:49.114Z,12.62
2023-05-04T20:51:49.832Z,12.55
2023-05-04T20:56:50.574Z,12.61
2023-05-04T21:01:52.549Z,12.51
2023-05-04T21:06:53.336Z,12.48
2023-05-04T21:11:54.011Z,12.40
2023-05-04T21:16:56.016Z,12.39
2023-05-04T21:21:58.950Z,12.24
2023-05-04T21:27:00.485Z,12.35
2023-05-04T21:32:03.800Z,12.24
2023-05-04T21:37:04.798Z,12.13
2023-05-04T21:42:05.522Z,12.10
2023-05-04T21:47:08.127Z,11.96
2023-05-04T21:52:08.854Z,11.91
2023-05-04T21:57:09.568Z,11.81
2023-05-04T22:02:11.778Z,11.68
2023-05-04T22:07:12.665Z,11.68
2023-05-04T22:12:13.338Z,11.59
2023-05-04T22:17:15.780Z,11.46
2023-05-04T22:22:16.609Z,11.35
2023-05-04T22:27:18.364Z,11.25
2023-05-04T22:32:20.465Z,11.13
2023-05-04T22:37:22.368Z,11.03
2023-05-04T22:42:23.056Z,10.99
2023-05-04T22:47:25.145Z,10.98
2023-05-04T22:52:25.960Z,10.85
2023-05-04T22:57:26.820Z,10.76
2023-05-04T23:02:28.884Z,10.57
2023-05-04T23:07:29.715Z,10.46
2023-05-04T23:12:30.446Z,10.31
2023-05-04T23:17:34.170Z,10.36
2023-05-04T23:22:35.067Z,10.26
2023-05-04T23:27:35.718Z,10.23
2023-05-04T23:32:37.916Z,10.18
2023-05-04T23:37:38.803Z,10.12
2023-05-04T23:42:39.448Z,10.10
2023-05-04T23:47:41.432Z,10.01
2023-05-04T23:52:42.160Z,9.80
2023-05-04T23:57:44.328Z,9.74
